createdAt,value
2023-04-15T00:01:52.248Z,100051.09
2023-04-15T00:04:19.091Z,100051.44
2023-04-15T00:06:45.975Z,100055.28
2023-04-15T00:09:12.712Z,100047.72
2023-04-15T00:11:39.456Z,100047.28
2023-04-15T00:14:07.336Z,100030.00
2023-04-15T00:16:34.195Z,100034.31
2023-04-15T00:19:01.110Z,100036.53
2023-04-15T00:21:28.963Z,100039.88
2023-04-15T00:23:55.823Z,100030.25
2023-04-15T00:26:22.552Z,100041.28
2023-04-15T00:28:49.389Z,100036.78
2023-04-15T00:31:16.301Z,100044.38
2023-04-15T00:33:43.136Z,100029.66
2023-04-15T00:36:10.006Z,100031.41
2023-04-15T00:38:36.741Z,100030.25
2023-04-15T00:41:03.697Z,100033.06
2023-04-15T00:43:30.475Z,100028.34
2023-04-15T00:45:57.698Z,100024.25
2023-04-15T00:48:24.455Z,100020.00
2023-04-15T00:50:51.252Z,100022.75
2023-04-15T00:53:18.010Z,100023.13
2023-04-15T00:55:44.753Z,100012.75
2023-04-15T00:58:11.872Z,100005.19
2023-04-15T01:00:38.723Z,99996.38
2023-04-15T01:03:05.538Z,99999.06
2023-04-15T01:05:32.426Z,100005.09
2023-04-15T01:07:59.354Z,99997.09
2023-04-15T01:10:26.079Z,99992.28
2023-04-15T01:12:52.975Z,99990.00
2023-04-15T01:15:20.324Z,99993.03
2023-04-15T01:17:47.083Z,99998.53
2023-04-15T01:20:15.850Z,99992.81
2023-04-15T01:22:42.603Z,99994.47
2023-04-15T01:25:09.500Z,99994.47
2023-04-15T01:27:36.410Z,99991.78
2023-04-15T01:30:05.219Z,99992.13
2023-04-15T01:32:32.129Z,99987.38
2023-04-15T01:34:58.966Z,99990.13
2023-04-15T01:37:26.069Z,99995.47
2023-04-15T01:39:52.815Z,99992.69
2023-04-15T01:42:19.598Z,99995.03
2023-04-15T01:44:46.334Z,99996.97
2023-04-15T01:47:13.092Z,99978.69
2023-04-15T01:49:39.894Z,99984.97
2023-04-15T01:52:06.624Z,99966.31
2023-04-15T01:54:33.385Z,99967.91
2023-04-15T01:57:00.272Z,99968.41
2023-04-15T01:59:27.278Z,99972.56
2023-04-15T02:01:54.055Z,99977.16
2023-04-15T02:04:20.826Z,99964.31
2023-04-15T02:06:47.577Z,99967.78
2023-04-15T02:09:14.539Z,99967.59
2023-04-15T02:11:41.332Z,99964.91
2023-04-15T02:14:08.205Z,99958.59
2023-04-15T02:16:35.030Z,99958.25
2023-04-15T02:19:02.146Z,99956.22
2023-04-15T02:21:29.228Z,99951.75
2023-04-15T02:23:56.279Z,99956.81
2023-04-15T02:26:23.141Z,99948.44
2023-04-15T02:28:51.263Z,99946.59
2023-04-15T02:31:18.071Z,99956.09
2023-04-15T02:33:45.051Z,99952.09
2023-04-15T02:36:12.444Z,99951.25
2023-04-15T02:38:42.244Z,99949.63
2023-04-15T02:41:09.367Z,99948.63
2023-04-15T02:43:36.181Z,99948.97
2023-04-15T02:46:03.020Z,99944.19
2023-04-15T02:48:29.855Z,99943.00
2023-04-15T02:50:56.602Z,99946.06
2023-04-15T02:53:23.352Z,99948.81
2023-04-15T02:55:50.199Z,99942.28
2023-04-15T02:58:16.981Z,99933.06
2023-04-15T03:00:43.745Z,99940.50
2023-04-15T03:03:10.807Z,99940.84
2023-04-15T03:05:39.089Z,99940.25
2023-04-15T03:08:06.519Z,99939.97
2023-04-15T03:10:33.308Z,99946.47
2023-04-15T03:13:00.987Z,99939.00
2023-04-15T03:15:27.886Z,99935.06
2023-04-15T03:17:54.751Z,99936.22
2023-04-15T03:20:21.602Z,99936.41
2023-04-15T03:22:48.365Z,99936.91
2023-04-15T03:25:15.158Z,99941.75
2023-04-15T03:27:41.983Z,99936.50
2023-04-15T03:30:08.910Z,99937.31
2023-04-15T03:32:35.872Z,99933.91
2023-04-15T03:35:02.680Z,99935.06
2023-04-15T03:37:29.479Z,99934.56
2023-04-15T03:39:56.430Z,99939.91
2023-04-15T03:42:23.203Z,99934.22
2023-04-15T03:44:49.966Z,99930.13
2023-04-15T03:47:17.131Z,99928.84
2023-04-15T03:49:43.859Z,99944.78
2023-04-15T03:52:10.711Z,99931.28
2023-04-15T03:54:38.820Z,99934.09
2023-04-15T03:57:05.700Z,99933.91
2023-04-15T03:59:32.526Z,99928.69
2023-04-15T04:01:59.390Z,99929.34
2023-04-15T04:04:26.575Z,99931.44
2023-04-15T04:06:53.563Z,99935.75
2023-04-15T04:09:20.506Z,99929.28
2023-04-15T04:11:47.252Z,99924.56
2023-04-15T04:14:14.000Z,99925.53
2023-04-15T04:16:41.007Z,99925.91
2023-04-15T04:19:08.320Z,99921.97
2023-04-15T04:21:35.130Z,99925.25
2023-04-15T04:24:02.038Z,99920.66
2023-04-15T04:26:28.836Z,99922.81
2023-04-15T04:28:55.616Z,99923.91
2023-04-15T04:31:22.470Z,99921.38
2023-04-15T04:33:49.224Z,99928.47
2023-04-15T04:36:16.288Z,99929.06
2023-04-15T04:38:43.029Z,99923.03
2023-04-15T04:41:09.759Z,99930.88
2023-04-15T04:43:36.525Z,99943.13
2023-04-15T04:46:03.327Z,99940.69
2023-04-15T04:48:30.246Z,99939.19
2023-04-15T04:50:56.980Z,99949.19
2023-04-15T04:53:23.761Z,99943.06
2023-04-15T04:55:50.959Z,99936.91
2023-04-15T04:58:17.764Z,99934.50
2023-04-15T05:00:44.529Z,99937.72
2023-04-15T05:03:11.401Z,99939.66
2023-04-15T05:05:41.003Z,99940.81
2023-04-15T05:08:07.938Z,99932.78
2023-04-15T05:10:34.670Z,99935.75
2023-04-15T05:13:01.447Z,99937.13
2023-04-15T05:15:28.238Z,99932.50
2023-04-15T05:17:55.124Z,99939.91
2023-04-15T05:20:22.016Z,99939.16
2023-04-15T05:22:48.786Z,99943.41
2023-04-15T05:25:16.257Z,99944.09
2023-04-15T05:27:43.014Z,99947.75
2023-04-15T05:30:11.572Z,99955.16
2023-04-15T05:32:40.109Z,99955.25
2023-04-15T05:35:07.933Z,99953.94
2023-04-15T05:37:34.685Z,99945.59
2023-04-15T05:40:01.502Z,99959.44
2023-04-15T05:42:28.270Z,99959.75
2023-04-15T05:44:55.069Z,99959.75
2023-04-15T05:47:22.079Z,99956.91
2023-04-15T05:49:48.850Z,99963.56
2023-04-15T05:52:15.638Z,99963.03
2023-04-15T05:54:42.392Z,99954.13
2023-04-15T05:57:09.140Z,99959.53
2023-04-15T05:59:36.025Z,99960.03
2023-04-15T06:02:02.824Z,99955.59
2023-04-15T06:04:30.244Z,99964.47
2023-04-15T06:06:57.143Z,99958.69
2023-04-15T06:09:23.977Z,99961.69
2023-04-15T06:11:50.890Z,99960.38
2023-04-15T06:14:17.663Z,99949.72
2023-04-15T06:16:44.444Z,99952.22
2023-04-15T06:19:12.242Z,99954.66
2023-04-15T06:21:38.993Z,99949.25
2023-04-15T06:24:05.932Z,99950.34
2023-04-15T06:26:32.663Z,99957.00
2023-04-15T06:28:59.682Z,99944.09
2023-04-15T06:31:26.831Z,99958.44
2023-04-15T06:33:53.664Z,99947.91
2023-04-15T06:36:20.562Z,99955.94
2023-04-15T06:38:47.300Z,99964.94
2023-04-15T06:41:14.047Z,99964.09
2023-04-15T06:43:40.806Z,99965.84
2023-04-15T06:46:07.671Z,99976.31
2023-04-15T06:48:34.462Z,99968.72
2023-04-15T06:51:01.297Z,99977.41
2023-04-15T06:53:28.118Z,99971.38
2023-04-15T06:55:54.894Z,99971.91
2023-04-15T06:58:21.731Z,99960.63
2023-04-15T07:00:48.964Z,99973.88
2023-04-15T07:03:15.888Z,99965.88
2023-04-15T07:05:42.671Z,99972.94
2023-04-15T07:08:09.424Z,99975.41
2023-04-15T07:10:36.285Z,99979.94
2023-04-15T07:13:03.042Z,99971.72
2023-04-15T07:15:29.791Z,99969.72
2023-04-15T07:17:56.544Z,99972.06
2023-04-15T07:20:23.383Z,99986.00
2023-04-15T07:22:50.131Z,99984.59
2023-04-15T07:25:17.612Z,99983.13
2023-04-15T07:27:44.425Z,99983.72
2023-04-15T07:30:11.271Z,99983.53
2023-04-15T07:32:38.052Z,99983.97
2023-04-15T07:35:04.916Z,99978.28
2023-04-15T07:37:32.110Z,99973.03
2023-04-15T07:39:58.868Z,99980.94
2023-04-15T07:42:25.649Z,99986.03
2023-04-15T07:44:52.384Z,99992.78
2023-04-15T07:47:19.173Z,99987.28
2023-04-15T07:49:46.242Z,99984.59
2023-04-15T07:52:12.980Z,99991.34
2023-04-15T07:54:39.780Z,99980.13
2023-04-15T07:57:06.555Z,99978.78
2023-04-15T07:59:33.680Z,99989.34
2023-04-15T08:02:00.489Z,99989.06
2023-04-15T08:04:27.442Z,99997.97
2023-04-15T08:06:54.805Z,99999.81
2023-04-15T08:09:21.617Z,100004.88
2023-04-15T08:11:48.374Z,100006.47
2023-04-15T08:14:15.399Z,100004.19
2023-04-15T08:16:42.303Z,100005.28
2023-04-15T08:19:09.253Z,100008.72
2023-04-15T08:21:36.439Z,100017.78
2023-04-15T08:24:03.239Z,100009.88
2023-04-15T08:26:30.041Z,100015.13
2023-04-15T08:28:57.252Z,100017.84
2023-04-15T08:31:24.161Z,100013.44
2023-04-15T08:33:52.400Z,100021.78
2023-04-15T08:36:19.154Z,100018.66
2023-04-15T08:38:46.090Z,100021.97
2023-04-15T08:41:14.200Z,100004.88
2023-04-15T08:43:41.391Z,100004.28
2023-04-15T08:46:08.128Z,100013.47
2023-04-15T08:48:35.800Z,100011.28
2023-04-15T08:51:02.929Z,100008.25
2023-04-15T08:53:29.672Z,100015.09
2023-04-15T08:55:56.503Z,100017.06
2023-04-15T08:58:23.258Z,100028.72
2023-04-15T09:00:50.052Z,100025.22
2023-04-15T09:03:17.630Z,100025.59
2023-04-15T09:05:44.560Z,100036.28
2023-04-15T09:08:11.873Z,100040.78
2023-04-15T09:10:38.637Z,100038.41
2023-04-15T09:13:05.428Z,100044.28
2023-04-15T09:15:32.192Z,100036.13
2023-04-15T09:17:59.007Z,100051.47
2023-04-15T09:20:26.255Z,100039.63
2023-04-15T09:22:53.090Z,100051.75
2023-04-15T09:25:19.874Z,100049.91
2023-04-15T09:27:46.705Z,100050.88
2023-04-15T09:30:13.482Z,100061.72
2023-04-15T09:32:40.855Z,100057.72
2023-04-15T09:35:07.629Z,100057.53
2023-04-15T09:37:34.359Z,100068.72
2023-04-15T09:40:01.531Z,100064.22
2023-04-15T09:42:28.621Z,100068.72
2023-04-15T09:44:55.477Z,100061.38
2023-04-15T09:47:22.335Z,100062.75
2023-04-15T09:49:49.152Z,100063.28
2023-04-15T09:52:15.896Z,100061.56
2023-04-15T09:54:42.707Z,100071.97
2023-04-15T09:57:10.149Z,100067.81
2023-04-15T09:59:37.339Z,100060.31
2023-04-15T10:02:04.150Z,100076.97
2023-04-15T10:04:31.008Z,100072.88
2023-04-15T10:06:57.758Z,100077.09
2023-04-15T10:09:24.520Z,100069.91
2023-04-15T10:11:51.299Z,100069.91
2023-04-15T10:14:18.036Z,100076.00
2023-04-15T10:16:45.871Z,100074.84
2023-04-15T10:19:12.610Z,100087.03
2023-04-15T10:21:39.364Z,100082.09
2023-04-15T10:24:06.150Z,100080.41
2023-04-15T10:26:32.893Z,100091.50
2023-04-15T10:29:00.145Z,100089.53
2023-04-15T10:31:27.275Z,100089.09
2023-04-15T10:33:54.094Z,100087.66
2023-04-15T10:36:20.817Z,100093.25
2023-04-15T10:38:47.654Z,100093.75
2023-04-15T10:41:14.615Z,100092.91
2023-04-15T10:43:41.359Z,100089.75
2023-04-15T10:46:08.181Z,100097.19
2023-04-15T10:48:34.934Z,100095.41
2023-04-15T10:51:05.237Z,100095.53
2023-04-15T10:53:32.017Z,100097.97
2023-04-15T10:55:58.976Z,100086.97
2023-04-15T10:58:25.919Z,100097.34
2023-04-15T11:00:52.956Z,100097.16
2023-04-15T11:03:19.852Z,100103.31
2023-04-15T11:05:46.741Z,100101.03
2023-04-15T11:08:13.535Z,100103.88
2023-04-15T11:10:40.327Z,100101.56
2023-04-15T11:13:07.073Z,100098.91
2023-04-15T11:15:33.862Z,100096.59
2023-04-15T11:18:00.761Z,100107.13
2023-04-15T11:20:27.553Z,100110.63
2023-04-15T11:23:14.800Z,100105.97
2023-04-15T11:25:41.653Z,100108.56
2023-04-15T11:28:08.724Z,100109.44
2023-04-15T11:30:35.646Z,100111.66
2023-04-15T11:33:02.526Z,100116.47
2023-04-15T11:35:29.374Z,100114.88
2023-04-15T11:37:56.169Z,100117.53
2023-04-15T11:40:22.953Z,100122.16
2023-04-15T11:42:50.212Z,100127.72
2023-04-15T11:45:17.101Z,100124.59
2023-04-15T11:47:43.937Z,100133.63
2023-04-15T11:50:10.850Z,100130.25
2023-04-15T11:52:37.666Z,100135.94
2023-04-15T11:55:04.469Z,100140.97
2023-04-15T11:57:31.300Z,100142.00
2023-04-15T11:59:58.129Z,100144.91
2023-04-15T12:02:24.944Z,100149.81
2023-04-15T12:04:51.899Z,100145.09
2023-04-15T12:07:18.973Z,100152.25
2023-04-15T12:09:45.706Z,100160.03
2023-04-15T12:12:12.653Z,100152.09
2023-04-15T12:14:39.405Z,100158.28
2023-04-15T12:17:06.185Z,100166.13
2023-04-15T12:19:32.974Z,100166.72
2023-04-15T12:22:00.767Z,100174.25
2023-04-15T12:24:27.956Z,100179.59
2023-04-15T12:26:54.926Z,100177.97
2023-04-15T12:29:22.072Z,100190.94
2023-04-15T12:31:49.695Z,100190.69
2023-04-15T12:34:16.763Z,100187.56
2023-04-15T12:36:43.547Z,100190.78
2023-04-15T12:39:10.404Z,100200.34
2023-04-15T12:41:37.214Z,100204.28
2023-04-15T12:44:04.315Z,100198.53
2023-04-15T12:46:31.425Z,100206.75
2023-04-15T12:48:58.261Z,100207.13
2023-04-15T12:51:27.240Z,100215.00
2023-04-15T12:53:53.998Z,100214.00
2023-04-15T12:56:20.841Z,100221.63
2023-04-15T12:58:47.587Z,100228.41
2023-04-15T13:01:14.340Z,100229.84
2023-04-15T13:03:41.305Z,100233.78
2023-04-15T13:06:08.212Z,100233.78
2023-04-15T13:08:38.420Z,100233.28
2023-04-15T13:11:07.162Z,100234.19
2023-04-15T13:13:33.910Z,100236.69
2023-04-15T13:16:00.692Z,100238.50
2023-04-15T13:18:27.613Z,100242.66
2023-04-15T13:20:54.388Z,100239.50
2023-04-15T13:23:21.138Z,100247.84
2023-04-15T13:25:47.960Z,100246.84
2023-04-15T13:28:14.714Z,100261.44
2023-04-15T13:30:41.499Z,100249.47
2023-04-15T13:33:08.273Z,100250.50
2023-04-15T13:35:35.192Z,100257.72
2023-04-15T13:38:01.935Z,100261.84
2023-04-15T13:40:28.736Z,100262.34
2023-04-15T13:42:56.069Z,100264.41
2023-04-15T13:45:22.885Z,100273.00
2023-04-15T13:47:49.689Z,100271.53
2023-04-15T13:50:16.565Z,100267.25
2023-04-15T13:52:43.324Z,100265.78
2023-04-15T13:55:19.372Z,100271.00
2023-04-15T13:57:47.523Z,100271.47
2023-04-15T14:00:14.481Z,100277.22
2023-04-15T14:02:42.200Z,100280.91
2023-04-15T14:05:09.209Z,100280.34
2023-04-15T14:07:36.420Z,100289.97
2023-04-15T14:10:03.214Z,100284.34
2023-04-15T14:12:29.957Z,100288.88
2023-04-15T14:14:56.771Z,100294.09
2023-04-15T14:17:23.557Z,100297.66
2023-04-15T14:19:50.342Z,100299.69
2023-04-15T14:22:18.786Z,100302.47
2023-04-15T14:24:45.585Z,100303.59
2023-04-15T14:27:12.688Z,100298.72
2023-04-15T14:29:39.564Z,100298.47
2023-04-15T14:32:11.892Z,100309.84
2023-04-15T14:34:39.229Z,100315.63
2023-04-15T14:37:06.212Z,100314.09
2023-04-15T14:39:32.954Z,100317.63
2023-04-15T14:41:59.787Z,100320.13
2023-04-15T14:44:26.595Z,100317.63
2023-04-15T14:46:53.676Z,100320.44
2023-04-15T14:49:20.708Z,100330.66
2023-04-15T14:51:47.502Z,100329.66
2023-04-15T14:54:14.354Z,100334.28
2023-04-15T14:56:41.341Z,100339.44
2023-04-15T14:59:08.105Z,100336.34
2023-04-15T15:01:34.926Z,100345.06
2023-04-15T15:04:01.875Z,100350.06
2023-04-15T15:06:28.756Z,100348.28
2023-04-15T15:08:55.499Z,100353.53
2023-04-15T15:11:22.252Z,100353.88
2023-04-15T15:13:49.129Z,100362.34
2023-04-15T15:16:15.886Z,100355.91
2023-04-15T15:18:42.684Z,100365.03
2023-04-15T15:21:09.462Z,100362.94
2023-04-15T15:23:36.297Z,100369.84
2023-04-15T15:26:03.073Z,100370.59
2023-04-15T15:28:29.906Z,100367.88
2023-04-15T15:30:56.766Z,100374.00
2023-04-15T15:33:23.579Z,100376.44
2023-04-15T15:35:50.375Z,100386.63
2023-04-15T15:38:17.166Z,100390.09
2023-04-15T15:40:43.932Z,100390.09
2023-04-15T15:43:10.858Z,100390.69
2023-04-15T15:45:37.651Z,100383.63
2023-04-15T15:48:04.546Z,100386.72
2023-04-15T15:50:31.360Z,100388.25
2023-04-15T15:52:58.578Z,100384.47
2023-04-15T15:55:27.104Z,100393.31
2023-04-15T15:57:54.328Z,100399.41
2023-04-15T16:00:22.690Z,100397.03
2023-04-15T16:03:05.894Z,100400.63
2023-04-15T16:05:33.338Z,100409.09
2023-04-15T16:08:00.115Z,100416.28
2023-04-15T16:10:26.948Z,100417.50
2023-04-15T16:12:53.748Z,100413.72
2023-04-15T16:15:20.536Z,100418.06
2023-04-15T16:17:47.336Z,100422.47
2023-04-15T16:20:14.132Z,100420.53
2023-04-15T16:22:40.881Z,100417.50
2023-04-15T16:25:07.637Z,100430.88
2023-04-15T16:27:36.466Z,100436.25
2023-04-15T16:30:10.220Z,100430.84
2023-04-15T16:32:37.051Z,100436.97
2023-04-15T16:35:03.874Z,100435.09
2023-04-15T16:37:32.988Z,100440.97
2023-04-15T16:39:59.773Z,100437.59
2023-04-15T16:42:26.517Z,100447.78
2023-04-15T16:44:53.408Z,100445.16
2023-04-15T16:47:20.167Z,100445.19
2023-04-15T16:49:46.910Z,100450.56
2023-04-15T16:52:13.657Z,100450.41
2023-04-15T16:54:43.346Z,100449.72
2023-04-15T16:57:10.106Z,100455.94
2023-04-15T16:59:36.956Z,100448.97
2023-04-15T17:02:03.770Z,100457.09
2023-04-15T17:04:30.663Z,100454.22
2023-04-15T17:06:57.529Z,100471.09
2023-04-15T17:09:24.355Z,100468.75
2023-04-15T17:11:51.096Z,100471.19
2023-04-15T17:14:17.859Z,100464.38
2023-04-15T17:16:44.676Z,100480.72
2023-04-15T17:19:11.424Z,100477.38
2023-04-15T17:21:38.179Z,100488.50
2023-04-15T17:24:04.951Z,100486.78
2023-04-15T17:26:31.734Z,100498.78
2023-04-15T17:28:58.623Z,100500.25
2023-04-15T17:31:25.548Z,100494.88
2023-04-15T17:34:01.948Z,100498.38
2023-04-15T17:36:36.081Z,100507.94
2023-04-15T17:39:03.384Z,100515.75
2023-04-15T17:41:30.472Z,100514.06
2023-04-15T17:43:57.229Z,100516.41
2023-04-15T17:46:24.030Z,100516.66
2023-04-15T17:48:50.806Z,100516.16
2023-04-15T17:51:17.586Z,100527.19
2023-04-15T17:53:44.331Z,100534.59
2023-04-15T17:56:11.071Z,100531.13
2023-04-15T17:58:39.109Z,100534.34
2023-04-15T18:01:06.290Z,100538.19
2023-04-15T18:03:33.229Z,100539.44
2023-04-15T18:06:01.210Z,100536.13
2023-04-15T18:08:27.981Z,100544.97
2023-04-15T18:10:54.719Z,100553.72
2023-04-15T18:13:21.482Z,100554.91
2023-04-15T18:15:49.324Z,100555.16
2023-04-15T18:18:16.148Z,100557.47
2023-04-15T18:20:42.915Z,100561.66
2023-04-15T18:23:09.656Z,100571.97
2023-04-15T18:25:38.130Z,100569.78
2023-04-15T18:28:05.514Z,100576.03
2023-04-15T18:30:32.301Z,100583.91
2023-04-15T18:32:59.149Z,100587.88
2023-04-15T18:35:25.955Z,100592.44
2023-04-15T18:37:52.816Z,100590.31
2023-04-15T18:40:19.572Z,100597.34
2023-04-15T18:42:46.402Z,100596.38
2023-04-15T18:45:13.165Z,100606.91
2023-04-15T18:47:39.998Z,100613.59
2023-04-15T18:50:06.818Z,100603.34
2023-04-15T18:52:34.066Z,100612.31
2023-04-15T18:55:00.841Z,100617.59
2023-04-15T18:57:31.720Z,100618.09
2023-04-15T19:00:00.001Z,100621.66
2023-04-15T19:02:26.991Z,100618.78
2023-04-15T19:04:53.801Z,100624.22
2023-04-15T19:07:20.614Z,100621.41
2023-04-15T19:09:47.374Z,100629.16
2023-04-15T19:12:14.134Z,100627.16
2023-04-15T19:14:40.909Z,100624.66
2023-04-15T19:17:07.697Z,100630.63
2023-04-15T19:19:34.523Z,100627.19
2023-04-15T19:22:03.193Z,100632.47
2023-04-15T19:24:31.638Z,100645.59
2023-04-15T19:26:59.596Z,100648.25
2023-04-15T19:29:28.367Z,100641.59
2023-04-15T19:31:55.272Z,100651.66
2023-04-15T19:34:22.036Z,100651.81
2023-04-15T19:36:48.792Z,100657.13
2023-04-15T19:39:15.733Z,100649.75
2023-04-15T19:41:44.086Z,100653.97
2023-04-15T19:44:12.755Z,100655.38
2023-04-15T19:46:39.772Z,100657.09
2023-04-15T19:49:06.917Z,100658.88
2023-04-15T19:51:33.847Z,100659.63
2023-04-15T19:54:00.722Z,100665.50
2023-04-15T19:56:27.617Z,100665.16
2023-04-15T19:58:54.545Z,100663.66
2023-04-15T20:01:21.295Z,100654.44
2023-04-15T20:03:48.310Z,100651.84
2023-04-15T20:06:15.321Z,100666.78
2023-04-15T20:08:42.077Z,100664.00
2023-04-15T20:11:08.839Z,100655.84
2023-04-15T20:13:35.644Z,100663.03
2023-04-15T20:16:02.413Z,100655.97
2023-04-15T20:18:29.250Z,100666.78
2023-04-15T20:20:55.981Z,100671.28
2023-04-15T20:23:22.720Z,100665.47
2023-04-15T20:25:49.639Z,100670.25
2023-04-15T20:28:18.705Z,100674.91
2023-04-15T20:30:45.598Z,100683.41
2023-04-15T20:33:12.398Z,100678.53
2023-04-15T20:35:39.143Z,100681.13
2023-04-15T20:38:05.982Z,100678.53
2023-04-15T20:40:33.611Z,100680.66
2023-04-15T20:43:00.501Z,100683.06
2023-04-15T20:45:27.305Z,100684.28
2023-04-15T20:47:55.149Z,100683.81
2023-04-15T20:50:21.966Z,100690.41
2023-04-15T20:52:48.717Z,100685.03
2023-04-15T20:55:15.633Z,100693.28
2023-04-15T20:57:42.463Z,100688.41
2023-04-15T21:00:10.681Z,100697.50
2023-04-15T21:02:37.555Z,100691.19
2023-04-15T21:05:04.490Z,100688.38
2023-04-15T21:07:31.246Z,100681.06
2023-04-15T21:09:58.042Z,100692.94
2023-04-15T21:12:24.790Z,100692.94
2023-04-15T21:14:51.599Z,100700.06
2023-04-15T21:17:18.510Z,100698.31
2023-04-15T21:19:45.278Z,100696.34
2023-04-15T21:22:12.067Z,100695.00
2023-04-15T21:24:38.835Z,100708.88
2023-04-15T21:27:05.743Z,100708.03
2023-04-15T21:29:32.630Z,100709.94
2023-04-15T21:31:59.412Z,100717.25
2023-04-15T21:34:26.151Z,100709.13
2023-04-15T21:36:52.893Z,100722.91
2023-04-15T21:39:19.710Z,100721.50
2023-04-15T21:41:46.545Z,100724.56
2023-04-15T21:44:14.741Z,100729.03
2023-04-15T21:46:42.031Z,100729.41
2023-04-15T21:49:12.910Z,100736.47
2023-04-15T21:51:39.673Z,100734.69
2023-04-15T21:54:06.428Z,100742.25
2023-04-15T21:56:33.197Z,100748.03
2023-04-15T21:58:59.954Z,100739.56
2023-04-15T22:01:26.799Z,100743.38
2023-04-15T22:03:53.939Z,100745.41
2023-04-15T22:06:21.029Z,100749.16
2023-04-15T22:08:56.078Z,100749.84
2023-04-15T22:11:28.358Z,100747.16
2023-04-15T22:13:55.531Z,100756.44
2023-04-15T22:16:22.446Z,100759.78
2023-04-15T22:18:49.267Z,100757.38
2023-04-15T22:21:16.222Z,100757.91
2023-04-15T22:23:42.967Z,100765.25
2023-04-15T22:26:09.856Z,100766.94
2023-04-15T22:28:36.667Z,100767.25
2023-04-15T22:31:03.766Z,100767.25
2023-04-15T22:33:30.696Z,100780.56
2023-04-15T22:35:57.485Z,100781.78
2023-04-15T22:38:24.226Z,100786.28
2023-04-15T22:40:53.796Z,100788.38
2023-04-15T22:43:20.695Z,100789.13
2023-04-15T22:45:47.486Z,100795.00
2023-04-15T22:48:14.225Z,100790.31
2023-04-15T22:50:41.048Z,100789.66
2023-04-15T22:53:07.797Z,100804.88
2023-04-15T22:55:34.525Z,100803.34
2023-04-15T22:58:01.321Z,100804.38
2023-04-15T23:00:28.049Z,100797.03
2023-04-15T23:02:54.954Z,100795.94
2023-04-15T23:05:22.287Z,100801.25
2023-04-15T23:07:49.089Z,100802.50
2023-04-15T23:10:15.898Z,100803.78
2023-04-15T23:12:42.731Z,100806.78
2023-04-15T23:15:09.469Z,100809.81
2023-04-15T23:17:36.273Z,100810.09
2023-04-15T23:20:03.042Z,100809.50
2023-04-15T23:22:29.786Z,100811.78
2023-04-15T23:24:56.525Z,100814.06
2023-04-15T23:27:23.266Z,100817.47
2023-04-15T23:29:50.015Z,100820.75
2023-04-15T23:32:16.791Z,100822.13
2023-04-15T23:34:43.577Z,100824.13
2023-04-15T23:37:10.381Z,100817.81
2023-04-15T23:39:37.128Z,100821.53
2023-04-15T23:42:03.907Z,100825.53
2023-04-15T23:44:30.673Z,100820.59
2023-04-15T23:46:57.495Z,100825.69
2023-04-15T23:49:24.291Z,100824.94
2023-04-15T23:51:51.083Z,100817.88
2023-04-15T23:54:17.827Z,100831.31
2023-04-15T23:56:44.637Z,100832.56
2023-04-15T23:59:11.610Z,100832.09
